createdAt,value
2023-04-20T00:01:01.447Z,1.30
2023-04-20T00:03:28.442Z,0.93
2023-04-20T00:05:55.583Z,1.13
2023-04-20T00:08:22.364Z,0.75
2023-04-20T00:10:49.199Z,1.00
2023-04-20T00:13:16.040Z,2.15
2023-04-20T00:15:42.885Z,1.45
2023-04-20T00:18:09.808Z,1.10
2023-04-20T00:20:36.828Z,0.90
2023-04-20T00:23:03.913Z,1.60
2023-04-20T00:25:31.580Z,0.90
2023-04-20T00:27:58.552Z,0.90
2023-04-20T00:30:25.405Z,1.00
2023-04-20T00:32:52.281Z,1.00
2023-04-20T00:35:19.084Z,1.30
2023-04-20T00:37:45.877Z,0.77
2023-04-20T00:40:12.766Z,1.05
2023-04-20T00:42:41.412Z,0.90
2023-04-20T00:45:08.812Z,0.93
2023-04-20T00:47:38.737Z,1.20
2023-04-20T00:50:06.757Z,1.10
2023-04-20T00:52:34.862Z,1.23
2023-04-20T00:55:03.320Z,1.33
2023-04-20T00:57:31.046Z,0.93
2023-04-20T00:59:58.385Z,1.90
2023-04-20T01:02:25.279Z,0.93
2023-04-20T01:04:52.174Z,1.00
2023-04-20T01:07:18.989Z,1.15
2023-04-20T01:09:45.813Z,1.17
2023-04-20T01:12:12.618Z,1.15
2023-04-20T01:14:39.440Z,1.13
2023-04-20T01:17:06.502Z,0.85
2023-04-20T01:19:33.710Z,0.82
2023-04-20T01:22:02.634Z,1.25
2023-04-20T01:24:29.497Z,1.00
2023-04-20T01:26:58.454Z,1.10
2023-04-20T01:29:25.365Z,1.00
2023-04-20T01:31:52.209Z,0.98
2023-04-20T01:34:19.143Z,1.20
2023-04-20T01:36:46.229Z,0.80
2023-04-20T01:39:13.085Z,1.02
2023-04-20T01:41:40.515Z,1.00
2023-04-20T01:44:07.316Z,1.00
2023-04-20T01:46:38.337Z,0.90
2023-04-20T01:49:07.406Z,0.85
2023-04-20T01:51:34.925Z,0.90
2023-04-20T01:56:29.034Z,1.05
2023-04-20T01:58:58.569Z,1.00
2023-04-20T02:01:25.561Z,1.00
2023-04-20T02:03:53.525Z,1.95
2023-04-20T02:06:21.471Z,0.95
2023-04-20T02:08:48.321Z,0.90
2023-04-20T02:11:15.351Z,1.00
2023-04-20T02:13:42.293Z,1.38
2023-04-20T02:16:09.453Z,1.02
2023-04-20T02:18:37.251Z,1.10
2023-04-20T02:21:05.797Z,0.90
2023-04-20T02:23:32.634Z,1.23
2023-04-20T02:25:59.427Z,0.90
2023-04-20T02:28:26.350Z,1.02
2023-04-20T02:30:53.146Z,0.93
2023-04-20T02:33:21.643Z,0.80
2023-04-20T02:35:48.603Z,1.10
2023-04-20T02:38:15.816Z,1.08
2023-04-20T02:40:42.614Z,1.15
2023-04-20T02:43:09.988Z,3.38
2023-04-20T02:45:38.302Z,1.25
2023-04-20T02:48:06.291Z,0.98
2023-04-20T02:50:33.374Z,1.00
2023-04-20T02:53:20.395Z,1.02
2023-04-20T02:55:53.188Z,1.00
2023-04-20T02:58:32.227Z,2.15
2023-04-20T03:01:19.562Z,1.10
2023-04-20T03:03:48.526Z,1.10
2023-04-20T03:06:15.623Z,0.93
2023-04-20T03:08:47.763Z,0.98
2023-04-20T03:11:42.107Z,1.17
2023-04-20T03:14:11.057Z,1.00
2023-04-20T03:16:38.482Z,1.50
2023-04-20T03:19:05.562Z,0.93
2023-04-20T03:21:33.032Z,1.00
2023-04-20T03:26:27.707Z,0.95
2023-04-20T03:29:09.842Z,1.80
2023-04-20T03:31:36.822Z,0.80
2023-04-20T03:34:03.869Z,1.30
2023-04-20T03:36:30.643Z,0.90
2023-04-20T03:38:57.451Z,1.20
2023-04-20T03:41:24.237Z,1.20
2023-04-20T03:43:51.237Z,1.45
2023-04-20T03:46:18.306Z,0.82
2023-04-20T03:48:46.388Z,1.45
2023-04-20T03:51:13.203Z,1.10
2023-04-20T03:53:40.225Z,1.23
2023-04-20T03:56:09.408Z,1.10
2023-04-20T03:58:36.309Z,1.17
2023-04-20T04:01:13.239Z,1.35
2023-04-20T04:03:44.702Z,0.98
2023-04-20T04:06:12.412Z,1.42
2023-04-20T04:08:39.196Z,1.10
2023-04-20T04:11:06.050Z,1.27
2023-04-20T04:13:34.640Z,0.90
2023-04-20T04:16:03.228Z,1.40
2023-04-20T04:18:32.635Z,1.40
2023-04-20T04:21:03.619Z,1.33
2023-04-20T04:23:30.821Z,1.25
2023-04-20T04:26:13.269Z,1.33
2023-04-20T04:28:45.797Z,1.30
2023-04-20T04:31:19.469Z,1.05
2023-04-20T04:41:18.655Z,1.60
2023-04-20T04:43:47.969Z,0.88
2023-04-20T04:46:36.588Z,1.10
2023-04-20T04:49:04.291Z,1.60
2023-04-20T04:51:31.662Z,1.00
2023-04-20T04:53:58.476Z,1.02
2023-04-20T04:56:25.673Z,1.92
2023-04-20T04:58:52.456Z,1.40
2023-04-20T05:01:19.345Z,1.05
2023-04-20T05:03:46.371Z,0.90
2023-04-20T05:06:13.216Z,1.38
2023-04-20T05:08:40.351Z,0.98
2023-04-20T05:11:07.197Z,1.10
2023-04-20T05:13:33.943Z,0.90
2023-04-20T05:16:00.774Z,0.88
2023-04-20T05:18:27.545Z,1.33
2023-04-20T05:20:54.651Z,1.20
2023-04-20T05:23:21.427Z,1.10
2023-04-20T05:25:48.290Z,0.82
2023-04-20T05:28:15.222Z,1.35
2023-04-20T05:30:42.342Z,0.77
2023-04-20T05:33:09.233Z,1.05
2023-04-20T05:35:36.110Z,0.73
2023-04-20T05:38:06.079Z,1.52
2023-04-20T05:40:37.229Z,1.20
2023-04-20T05:43:04.046Z,0.90
2023-04-20T05:45:32.895Z,1.23
2023-04-20T05:47:59.819Z,1.55
2023-04-20T05:50:27.417Z,0.90
2023-04-20T05:55:22.864Z,0.90
2023-04-20T05:57:52.039Z,1.70
2023-04-20T06:00:19.491Z,1.00
2023-04-20T06:02:46.636Z,1.23
2023-04-20T06:05:13.656Z,1.13
2023-04-20T06:07:40.541Z,1.25
2023-04-20T06:10:09.032Z,1.48
2023-04-20T06:12:35.889Z,1.10
2023-04-20T06:15:04.056Z,1.27
2023-04-20T06:17:30.958Z,0.88
2023-04-20T06:19:57.752Z,1.20
2023-04-20T06:22:24.563Z,1.00
2023-04-20T06:24:51.406Z,1.23
2023-04-20T06:27:18.140Z,1.60
2023-04-20T06:29:44.944Z,1.58
2023-04-20T06:32:11.772Z,1.30
2023-04-20T06:34:38.522Z,0.98
2023-04-20T06:37:06.890Z,1.35
2023-04-20T06:39:33.775Z,0.98
2023-04-20T06:42:00.984Z,1.08
2023-04-20T06:44:28.029Z,1.00
2023-04-20T06:46:54.858Z,1.48
2023-04-20T06:49:21.765Z,1.30
2023-04-20T06:51:48.629Z,1.10
2023-04-20T06:54:15.730Z,1.30
2023-04-20T06:56:42.501Z,1.10
2023-04-20T06:59:09.284Z,1.15
2023-04-20T07:01:36.214Z,1.30
2023-04-20T07:04:03.189Z,1.50
2023-04-20T07:06:30.177Z,0.88
2023-04-20T07:08:56.938Z,1.55
2023-04-20T07:11:24.502Z,1.00
2023-04-20T07:13:51.358Z,1.00
2023-04-20T07:16:18.192Z,1.40
2023-04-20T07:18:45.061Z,1.40
2023-04-20T07:21:11.965Z,0.95
2023-04-20T07:23:38.764Z,1.17
2023-04-20T07:26:05.785Z,1.10
2023-04-20T07:28:33.250Z,1.10
2023-04-20T07:31:00.199Z,1.48
2023-04-20T07:33:27.747Z,0.95
2023-04-20T07:35:54.663Z,1.35
2023-04-20T07:38:21.454Z,1.65
2023-04-20T07:40:48.275Z,1.13
2023-04-20T07:43:15.147Z,1.20
2023-04-20T07:45:42.584Z,1.27
2023-04-20T07:48:09.542Z,1.20
2023-04-20T07:50:36.645Z,1.13
2023-04-20T07:53:03.573Z,1.10
2023-04-20T07:55:30.529Z,1.23
2023-04-20T07:57:57.787Z,1.05
2023-04-20T08:00:25.280Z,1.75
2023-04-20T08:05:19.445Z,0.90
2023-04-20T08:07:46.311Z,1.00
2023-04-20T08:10:13.339Z,0.95
2023-04-20T08:12:40.461Z,0.98
2023-04-20T08:15:08.006Z,1.20
2023-04-20T08:20:01.903Z,1.30
2023-04-20T08:22:30.106Z,1.08
2023-04-20T08:24:57.605Z,1.45
2023-04-20T08:27:25.364Z,1.40
2023-04-20T08:29:52.315Z,1.20
2023-04-20T08:32:22.557Z,1.35
2023-04-20T08:34:50.075Z,1.10
2023-04-20T08:39:43.704Z,0.90
2023-04-20T08:42:10.905Z,1.20
2023-04-20T08:44:37.935Z,1.02
2023-04-20T08:47:04.864Z,1.70
2023-04-20T08:49:32.940Z,1.58
2023-04-20T08:51:59.780Z,1.63
2023-04-20T08:54:27.055Z,1.23
2023-04-20T08:56:54.276Z,1.33
2023-04-20T08:59:21.089Z,1.23
2023-04-20T09:01:48.029Z,1.20
2023-04-20T09:04:26.832Z,1.30
2023-04-20T09:06:56.330Z,1.50
2023-04-20T09:09:25.239Z,1.23
2023-04-20T09:12:06.860Z,1.35
2023-04-20T09:14:45.070Z,1.40
2023-04-20T09:17:14.432Z,2.92
2023-04-20T09:19:43.866Z,1.42
2023-04-20T09:22:10.694Z,1.15
2023-04-20T09:24:39.055Z,1.27
2023-04-20T09:27:16.525Z,1.50
2023-04-20T09:29:43.843Z,0.93
2023-04-20T09:32:22.859Z,1.27
2023-04-20T09:34:49.751Z,1.08
2023-04-20T09:37:16.862Z,0.85
2023-04-20T09:39:45.736Z,1.75
2023-04-20T09:42:14.502Z,1.20
2023-04-20T09:44:41.859Z,1.13
2023-04-20T09:47:09.601Z,1.30
2023-04-20T09:49:43.997Z,1.83
2023-04-20T09:52:11.535Z,1.55
2023-04-20T09:57:06.080Z,1.08
2023-04-20T09:59:33.485Z,1.55
2023-04-20T10:02:00.503Z,1.27
2023-04-20T10:04:27.611Z,1.63
2023-04-20T10:06:57.772Z,1.27
2023-04-20T10:09:26.189Z,1.75
2023-04-20T10:11:55.116Z,1.60
2023-04-20T10:14:24.752Z,1.45
2023-04-20T10:17:06.993Z,1.58
2023-04-20T10:19:44.926Z,1.80
2023-04-20T10:22:25.133Z,1.27
2023-04-20T10:24:51.940Z,1.80
2023-04-20T10:27:20.583Z,1.27
2023-04-20T10:29:48.510Z,1.00
2023-04-20T10:32:25.793Z,1.20
2023-04-20T10:37:34.814Z,0.95
2023-04-20T10:40:02.892Z,1.30
2023-04-20T10:42:46.642Z,1.38
2023-04-20T10:45:13.803Z,1.45
2023-04-20T10:47:40.940Z,1.30
2023-04-20T10:50:10.438Z,1.33
2023-04-20T10:52:39.689Z,1.30
2023-04-20T10:55:17.596Z,1.13
2023-04-20T10:57:47.635Z,0.90
2023-04-20T11:00:16.473Z,0.90
2023-04-20T11:02:50.829Z,1.00
2023-04-20T11:05:19.606Z,0.70
2023-04-20T11:07:57.611Z,1.10
2023-04-20T11:10:37.276Z,2.60
2023-04-20T11:13:04.068Z,0.80
2023-04-20T11:15:32.049Z,1.20
2023-04-20T11:18:10.576Z,1.13
2023-04-20T11:20:49.466Z,0.77
2023-04-20T11:23:16.336Z,0.70
2023-04-20T11:25:56.924Z,0.80
2023-04-20T11:28:24.066Z,1.10
2023-04-20T11:30:51.190Z,1.23
2023-04-20T11:33:29.055Z,0.90
2023-04-20T11:35:57.642Z,1.23
2023-04-20T11:38:31.624Z,0.80
2023-04-20T11:41:04.318Z,1.20
2023-04-20T11:43:32.144Z,1.10
2023-04-20T11:45:59.984Z,0.90
2023-04-20T11:48:28.169Z,1.40
2023-04-20T11:50:54.920Z,1.33
2023-04-20T11:53:21.694Z,1.40
2023-04-20T11:55:49.116Z,1.23
2023-04-20T12:00:42.536Z,1.00
2023-04-20T12:03:09.470Z,1.10
2023-04-20T12:05:36.402Z,1.60
2023-04-20T12:08:03.238Z,1.52
2023-04-20T12:10:30.206Z,6.38
2023-04-20T12:12:57.299Z,1.45
2023-04-20T12:15:24.514Z,1.33
2023-04-20T12:17:51.922Z,1.10
2023-04-20T12:22:45.506Z,1.60
2023-04-20T12:25:12.497Z,1.08
2023-04-20T12:27:39.387Z,1.63
2023-04-20T12:30:09.100Z,2.53
2023-04-20T12:32:36.058Z,1.15
2023-04-20T12:35:02.943Z,1.38
2023-04-20T12:37:29.895Z,1.25
2023-04-20T12:39:57.581Z,1.50
2023-04-20T12:42:24.781Z,1.65
2023-04-20T12:44:56.040Z,1.55
2023-04-20T12:47:23.010Z,2.83
2023-04-20T12:49:49.822Z,1.60
2023-04-20T12:52:16.577Z,1.10
2023-04-20T12:54:44.307Z,2.80
2023-04-20T12:57:11.767Z,1.60
2023-04-20T12:59:38.575Z,1.50
2023-04-20T13:02:05.387Z,2.00
2023-04-20T13:04:32.436Z,1.70
2023-04-20T13:06:59.501Z,2.20
2023-04-20T13:09:27.142Z,1.70
2023-04-20T13:11:54.291Z,1.63
2023-04-20T13:14:21.472Z,2.00
2023-04-20T13:16:48.750Z,2.17
2023-04-20T13:19:15.694Z,1.88
2023-04-20T13:21:42.642Z,1.92
2023-04-20T13:24:09.753Z,1.45
2023-04-20T13:26:36.921Z,1.88
2023-04-20T13:29:03.791Z,1.80
2023-04-20T13:31:31.990Z,2.55
2023-04-20T13:33:59.454Z,2.13
2023-04-20T13:38:55.759Z,1.77
2023-04-20T13:41:25.703Z,2.33
2023-04-20T13:43:52.603Z,1.70
2023-04-20T13:46:20.230Z,1.65
2023-04-20T13:48:47.130Z,1.77
2023-04-20T13:51:14.023Z,3.08
2023-04-20T13:53:41.196Z,1.80
2023-04-20T13:56:08.085Z,1.88
2023-04-20T13:58:35.019Z,1.88
2023-04-20T14:01:07.899Z,2.30
2023-04-20T14:03:34.768Z,2.20
2023-04-20T14:06:01.636Z,2.70
2023-04-20T14:08:28.437Z,2.60
2023-04-20T14:10:55.439Z,2.25
2023-04-20T14:13:23.594Z,2.58
2023-04-20T14:15:51.242Z,2.30
2023-04-20T14:18:18.165Z,1.80
2023-04-20T14:20:45.592Z,1.95
2023-04-20T14:25:39.191Z,1.83
2023-04-20T14:28:05.993Z,2.35
2023-04-20T14:30:32.848Z,1.38
2023-04-20T14:33:00.611Z,2.15
2023-04-20T14:35:28.406Z,1.98
2023-04-20T14:37:55.221Z,1.98
2023-04-20T14:40:22.446Z,1.65
2023-04-20T14:45:16.214Z,2.05
2023-04-20T14:47:43.044Z,2.28
2023-04-20T14:50:10.665Z,2.05
2023-04-20T14:52:37.441Z,2.22
2023-04-20T14:55:04.540Z,2.50
2023-04-20T14:57:31.548Z,2.28
2023-04-20T14:59:58.322Z,1.65
2023-04-20T15:02:25.476Z,1.52
2023-04-20T15:04:52.790Z,1.85
2023-04-20T15:07:19.700Z,2.15
2023-04-20T15:09:46.630Z,1.98
2023-04-20T15:12:13.609Z,1.98
2023-04-20T15:14:40.477Z,2.47
2023-04-20T15:17:07.410Z,1.58
2023-04-20T15:19:34.202Z,1.30
2023-04-20T15:22:01.214Z,1.80
2023-04-20T15:24:28.053Z,2.15
2023-04-20T15:26:54.954Z,1.33
2023-04-20T15:29:21.911Z,1.90
2023-04-20T15:31:48.796Z,1.75
2023-04-20T15:34:17.185Z,2.05
2023-04-20T15:36:44.660Z,1.50
2023-04-20T15:39:12.342Z,1.05
2023-04-20T15:41:39.269Z,3.08
2023-04-20T15:44:06.650Z,1.50
2023-04-20T15:46:34.059Z,1.13
2023-04-20T15:49:01.103Z,1.45
2023-04-20T15:51:28.072Z,0.98
2023-04-20T15:53:55.072Z,1.55
2023-04-20T15:56:24.659Z,1.17
2023-04-20T15:58:51.900Z,1.02
2023-04-20T16:01:19.597Z,1.20
2023-04-20T16:03:47.541Z,1.17
2023-04-20T16:06:33.098Z,1.10
2023-04-20T16:09:18.631Z,1.30
2023-04-20T16:11:45.520Z,1.60
2023-04-20T16:14:12.334Z,1.00
2023-04-20T16:16:39.133Z,1.50
2023-04-20T16:19:05.928Z,1.27
2023-04-20T16:21:32.965Z,1.10
2023-04-20T16:24:00.252Z,1.15
2023-04-20T16:26:27.152Z,1.23
2023-04-20T16:28:54.170Z,1.42
2023-04-20T16:31:21.091Z,1.10
2023-04-20T16:33:48.024Z,1.15
2023-04-20T16:36:16.232Z,1.15
2023-04-20T16:38:43.351Z,1.10
2023-04-20T16:41:10.521Z,1.00
2023-04-20T16:43:37.325Z,1.17
2023-04-20T16:46:04.148Z,1.83
2023-04-20T16:48:31.698Z,1.70
2023-04-20T16:53:25.795Z,1.25
2023-04-20T16:55:52.583Z,2.25
2023-04-20T16:58:19.423Z,1.50
2023-04-20T17:00:46.281Z,1.23
2023-04-20T17:03:13.869Z,1.27
2023-04-20T17:05:42.133Z,1.67
2023-04-20T17:08:09.414Z,1.15
2023-04-20T17:10:39.346Z,2.08
2023-04-20T17:13:06.224Z,1.70
2023-04-20T17:15:33.047Z,1.13
2023-04-20T17:17:59.865Z,1.40
2023-04-20T17:20:26.817Z,1.67
2023-04-20T17:22:53.654Z,2.17
2023-04-20T17:25:20.494Z,1.20
2023-04-20T17:27:47.278Z,1.73
2023-04-20T17:30:14.482Z,1.70
2023-04-20T17:32:41.843Z,1.15
2023-04-20T17:35:08.946Z,1.75
2023-04-20T17:37:36.502Z,1.80
2023-04-20T17:42:31.624Z,1.65
2023-04-20T17:44:58.495Z,2.00
2023-04-20T17:47:25.392Z,2.38
2023-04-20T17:49:52.213Z,1.70
2023-04-20T17:52:19.618Z,1.80
2023-04-20T17:57:14.235Z,1.50
2023-04-20T17:59:42.259Z,1.55
2023-04-20T18:02:09.314Z,1.38
2023-04-20T18:04:36.390Z,1.80
2023-04-20T18:07:03.748Z,1.65
2023-04-20T18:09:30.807Z,2.00
2023-04-20T18:11:57.583Z,1.83
2023-04-20T18:14:42.598Z,2.28
2023-04-20T18:17:09.821Z,1.48
2023-04-20T18:19:36.656Z,1.85
2023-04-20T18:22:03.964Z,1.45
2023-04-20T18:24:30.742Z,1.88
2023-04-20T18:26:57.621Z,4.32
2023-04-20T18:29:24.451Z,2.03
2023-04-20T18:31:53.417Z,2.53
2023-04-20T18:34:20.549Z,2.40
2023-04-20T18:36:47.429Z,2.30
2023-04-20T18:39:14.993Z,2.05
2023-04-20T18:44:08.577Z,1.95
2023-04-20T18:46:35.418Z,2.28
2023-04-20T18:49:02.318Z,1.75
2023-04-20T18:51:29.143Z,1.73
2023-04-20T18:53:55.954Z,2.13
2023-04-20T18:56:22.770Z,1.90
2023-04-20T18:58:49.682Z,1.90
2023-04-20T19:01:16.716Z,4.75
2023-04-20T19:03:45.557Z,2.13
2023-04-20T19:06:14.592Z,2.08
2023-04-20T19:08:41.406Z,2.20
2023-04-20T19:11:08.181Z,1.85
2023-04-20T19:13:34.999Z,2.72
2023-04-20T19:16:01.886Z,2.42
2023-04-20T19:18:28.719Z,2.33
2023-04-20T19:20:55.573Z,1.70
2023-04-20T19:23:22.344Z,1.63
2023-04-20T19:25:49.196Z,2.00
2023-04-20T19:28:16.034Z,2.45
2023-04-20T19:30:42.884Z,2.75
2023-04-20T19:33:09.695Z,3.35
2023-04-20T19:35:36.698Z,1.75
2023-04-20T19:38:03.601Z,2.53
2023-04-20T19:40:30.428Z,3.00
2023-04-20T19:42:57.201Z,2.13
2023-04-20T19:45:24.201Z,2.83
2023-04-20T19:47:51.711Z,2.38
2023-04-20T19:50:18.686Z,2.85
2023-04-20T19:52:45.578Z,3.63
2023-04-20T19:55:12.450Z,1.92
2023-04-20T19:57:39.345Z,2.67
2023-04-20T20:00:08.473Z,3.20
2023-04-20T20:02:40.341Z,2.95
2023-04-20T20:05:07.953Z,3.03
2023-04-20T20:07:34.997Z,3.95
2023-04-20T20:10:03.266Z,3.45
2023-04-20T20:12:30.556Z,3.45
2023-04-20T20:14:57.395Z,3.40
2023-04-20T20:17:24.220Z,2.67
2023-04-20T20:19:53.680Z,3.80
2023-04-20T20:22:21.264Z,2.67
2023-04-20T20:24:50.989Z,3.65
2023-04-20T20:27:17.873Z,3.80
2023-04-20T20:29:44.734Z,3.20
2023-04-20T20:32:11.529Z,2.10
2023-04-20T20:34:38.343Z,3.67
2023-04-20T20:37:05.137Z,3.72
2023-04-20T20:39:32.388Z,3.45
2023-04-20T20:41:59.553Z,3.10
2023-04-20T20:44:27.762Z,4.10
2023-04-20T20:46:54.684Z,3.30
2023-04-20T20:49:21.528Z,3.80
2023-04-20T20:51:48.320Z,3.97
2023-04-20T20:54:15.383Z,2.25
2023-04-20T20:56:43.533Z,2.03
2023-04-20T20:59:10.656Z,2.92
2023-04-20T21:01:37.558Z,3.17
2023-04-20T21:04:04.739Z,3.22
2023-04-20T21:08:59.487Z,2.38
2023-04-20T21:11:26.339Z,1.83
2023-04-20T21:13:54.158Z,3.17
2023-04-20T21:16:21.022Z,3.15
2023-04-20T21:18:47.829Z,3.00
2023-04-20T21:21:16.257Z,3.97
2023-04-20T21:23:43.096Z,3.08
2023-04-20T21:26:09.869Z,2.50
2023-04-20T21:28:36.649Z,2.13
2023-04-20T21:31:03.471Z,3.13
2023-04-20T21:33:30.489Z,4.05
2023-04-20T21:35:58.977Z,3.13
2023-04-20T21:38:25.938Z,5.65
2023-04-20T21:40:52.776Z,2.30
2023-04-20T21:43:19.648Z,3.15
2023-04-20T21:45:46.480Z,2.00
2023-04-20T21:48:13.305Z,2.63
2023-04-20T21:50:40.120Z,2.33
2023-04-20T21:53:07.003Z,3.55
2023-04-20T21:55:33.839Z,3.65
2023-04-20T21:58:00.674Z,3.42
2023-04-20T22:00:27.589Z,3.80
2023-04-20T22:02:54.427Z,2.88
2023-04-20T22:05:21.684Z,3.60
2023-04-20T22:07:48.570Z,2.63
2023-04-20T22:10:15.592Z,2.40
2023-04-20T22:12:42.571Z,3.28
2023-04-20T22:15:11.480Z,3.85
2023-04-20T22:17:38.425Z,3.00
2023-04-20T22:20:07.858Z,3.88
2023-04-20T22:22:35.675Z,2.72
2023-04-20T22:25:04.558Z,3.47
2023-04-20T22:27:32.624Z,3.28
2023-04-20T22:29:59.755Z,3.50
2023-04-20T22:32:27.301Z,2.83
2023-04-20T22:37:20.805Z,2.78
2023-04-20T22:39:47.581Z,3.55
2023-04-20T22:42:14.399Z,2.95
2023-04-20T22:44:41.185Z,3.42
2023-04-20T22:47:08.007Z,6.80
2023-04-20T22:49:35.750Z,3.65
2023-04-20T22:52:02.655Z,4.20
2023-04-20T22:54:30.372Z,2.85
2023-04-20T22:56:58.620Z,3.03
2023-04-20T22:59:25.441Z,4.85
2023-04-20T23:01:52.296Z,2.25
2023-04-20T23:04:19.203Z,2.47
2023-04-20T23:06:47.169Z,6.78
2023-04-20T23:09:17.294Z,3.10
2023-04-20T23:11:47.156Z,3.30
2023-04-20T23:14:14.119Z,3.13
2023-04-20T23:16:41.097Z,5.30
2023-04-20T23:19:08.253Z,7.60
2023-04-20T23:21:35.091Z,3.15
2023-04-20T23:24:01.935Z,3.78
2023-04-20T23:26:28.762Z,3.78
2023-04-20T23:28:55.712Z,5.05
2023-04-20T23:31:22.613Z,2.85
2023-04-20T23:33:49.668Z,4.25
2023-04-20T23:36:16.696Z,2.95
2023-04-20T23:38:43.843Z,4.15
2023-04-20T23:41:13.947Z,5.10
2023-04-20T23:43:41.263Z,3.38
2023-04-20T23:46:08.670Z,3.58
2023-04-20T23:51:02.352Z,2.22
2023-04-20T23:53:29.135Z,3.58
2023-04-20T23:55:55.908Z,3.65
2023-04-20T23:58:27.177Z,3.75
